Langdon, Kansas
Current Conditions -  °F | °C
As of 7:15 AM on Sunday 21 Dec 2014 (Local Time) from KPTT Reporting Station
Haze Haze  
Wind Chill: -1°   Ceiling: 200
Heat Index:   Visibility: 0.75mi
Dew Point:   Wind: 10mph
Humidity: 100%   Direction: 160°SSE
Pressure: 29.94"   Gusts: NA
Location:  37.8171°N, 98.3602°W
Report Text: KPTT 211315Z AUTO 16009KT 3/4SM BR OVC002 03/03 A2994 RMK AO2
Loading
Personal Weather Stations






























Interactive Weather Map New forecast layout! Learn more

10-Day Weather Forecast

Advertisements
Track Severe Weather on mobile